Time;durP1;ratioP1;P1;durP2;ratioP2;P2;SDS_P1;SDS_P2;PMS_P1;PMS_P2;Temp;Humidity;BMP_temperature;BMP_pressure;BME280_temperature;BME280_humidity;BME280_pressure;Samples;Min_cycle;Max_cycle;Signal;HPM_P1;HPM_P2
2021/06/19 00:01:33;;;;;;;;;;;;;;;24.06;64.02;100935.22;5095125;28;941;-59
2021/06/19 00:03:58;;;;;;;;;;;;;;;24.01;64.17;100926.75;5095130;28;1901;-59
2021/06/19 00:06:23;;;;;;;;;;;;;;;24.02;64.12;100923.00;5095645;28;1607;-59
2021/06/19 00:08:48;;;;;;;;;;;;;;;24.00;64.23;100920.50;5095169;28;988;-59
2021/06/19 00:11:13;;;;;;;;;;;;;;;23.96;63.86;100923.75;5095195;28;1112;-59
2021/06/19 00:13:38;;;;;;;;;;;;;;;24.00;63.62;100923.22;5094567;28;1894;-59
2021/06/19 00:16:05;;;;;;;;;;;;;;;24.03;64.06;100919.25;5094948;28;895;-59
2021/06/19 00:18:30;;;;;;;;;;;;;;;24.02;63.75;100923.00;5095569;28;814;-61
2021/06/19 00:20:55;;;;;;;;;;;;;;;24.00;63.48;100925.09;5099037;28;1792;-59
2021/06/19 00:23:21;;;;;;;;;;;;;;;24.00;63.57;100917.75;5098529;28;1955;-59
2021/06/19 00:25:46;;;;;;;;;;;;;;;24.01;63.53;100927.59;5098883;28;890;-60
2021/06/19 00:28:11;;;;;;;;;;;;;;;24.03;63.41;100930.13;5098668;28;798;-59
2021/06/19 00:30:36;;;;;;;;;;;;;;;24.00;63.46;100925.09;5098649;28;988;-60
2021/06/19 00:33:01;;;;;;;;;;;;;;;23.88;63.86;100922.78;5098783;28;1761;-59
2021/06/19 00:35:26;;;;;;;;;;;;;;;23.92;63.97;100922.41;5099160;28;1734;-59
2021/06/19 00:37:51;;;;;;;;;;;;;;;23.87;63.88;100920.25;5080639;28;1202;-59
2021/06/19 00:40:16;;;;;;;;;;;;;;;23.90;63.97;100914.44;5098395;28;849;-59
2021/06/19 00:42:42;;;;;;;;;;;;;;;23.79;64.32;100907.56;5098670;28;1898;-60
2021/06/19 00:45:07;;;;;;;;;;;;;;;23.82;64.05;100907.22;5098523;28;1622;-60
2021/06/19 00:47:32;;;;;;;;;;;;;;;23.85;63.98;100908.69;5099008;28;813;-60
2021/06/19 00:49:57;;;;;;;;;;;;;;;23.91;63.80;100916.13;5098693;28;1035;-60
2021/06/19 00:52:22;;;;;;;;;;;;;;;23.92;63.16;100916.97;5097828;28;1833;-60
2021/06/19 00:54:47;;;;;;;;;;;;;;;23.92;63.68;100914.25;5098524;28;1728;-60
2021/06/19 00:57:12;;;;;;;;;;;;;;;23.93;63.35;100910.50;5098215;28;1030;-61
2021/06/19 00:59:37;;;;;;;;;;;;;;;23.87;63.59;100910.22;5097937;28;969;-59
2021/06/19 01:02:03;;;;;;;;;;;;;;;23.82;63.78;100904.50;5098343;28;1971;-59
2021/06/19 01:04:28;;;;;;;;;;;;;;;23.83;63.73;100914.31;5098126;28;940;-59
2021/06/19 01:06:53;;;;;;;;;;;;;;;23.85;63.51;100916.84;5098139;28;984;-59
2021/06/19 01:09:18;;;;;;;;;;;;;;;23.77;64.07;100917.81;5097862;28;1023;-60
2021/06/19 01:11:43;;;;;;;;;;;;;;;23.73;63.72;100913.75;5097939;28;1672;-61
2021/06/19 01:14:08;;;;;;;;;;;;;;;23.73;63.82;100918.34;5097846;28;801;-60
2021/06/19 01:16:34;;;;;;;;;;;;;;;23.74;63.70;100926.31;5098138;28;841;-60
2021/06/19 01:18:59;;;;;;;;;;;;;;;23.70;64.00;100930.44;5097757;28;853;-60
2021/06/19 01:21:24;;;;;;;;;;;;;;;23.67;64.18;100930.78;5097643;28;1779;-60
2021/06/19 01:23:49;;;;;;;;;;;;;;;23.58;64.10;100929.19;5098034;28;1973;-61
2021/06/19 01:26:14;;;;;;;;;;;;;;;23.33;64.85;100941.22;5097539;28;979;-61
2021/06/19 01:28:39;;;;;;;;;;;;;;;23.36;64.87;100940.88;5097242;28;960;-61
2021/06/19 01:31:04;;;;;;;;;;;;;;;23.37;64.92;100942.56;5098050;28;1530;-61
2021/06/19 01:33:29;;;;;;;;;;;;;;;23.28;64.92;100946.38;5097216;28;1799;-61
2021/06/19 01:35:54;;;;;;;;;;;;;;;23.32;65.07;100945.81;5097683;28;1016;-61
2021/06/19 01:38:19;;;;;;;;;;;;;;;23.24;65.20;100950.47;5097720;28;790;-60
2021/06/19 01:40:45;;;;;;;;;;;;;;;23.04;65.77;100945.47;5097703;28;1562;-61
2021/06/19 01:43:10;;;;;;;;;;;;;;;23.29;64.91;100934.47;5097611;28;1906;-60
2021/06/19 01:45:35;;;;;;;;;;;;;;;23.07;65.51;100933.41;5097627;28;810;-60
2021/06/19 01:48:00;;;;;;;;;;;;;;;23.18;65.04;100931.13;5097113;28;948;-60
2021/06/19 01:50:25;;;;;;;;;;;;;;;22.96;65.81;100926.47;5097185;28;841;-60
2021/06/19 01:52:50;;;;;;;;;;;;;;;23.16;65.18;100933.16;5096641;28;1882;-60
2021/06/19 01:55:16;;;;;;;;;;;;;;;22.80;66.13;100926.56;5097163;28;967;-59
2021/06/19 01:57:41;;;;;;;;;;;;;;;22.88;66.23;100929.25;5096611;28;1774;-60
2021/06/19 02:00:06;;;;;;;;;;;;;;;22.92;65.92;100930.59;5097706;28;853;-60
2021/06/19 02:02:31;;;;;;;;;;;;;;;22.85;65.91;100932.31;5096642;28;1902;-59
2021/06/19 02:04:56;;;;;;;;;;;;;;;22.94;65.69;100924.97;5097027;28;1063;-60
2021/06/19 02:07:21;;;;;;;;;;;;;;;23.04;65.18;100934.59;5096463;28;1695;-60
2021/06/19 02:09:46;;;;;;;;;;;;;;;22.97;65.27;100938.19;5097155;28;869;-60
2021/06/19 02:12:11;;;;;;;;;;;;;;;22.97;65.36;100940.91;5096957;28;1592;-60
2021/06/19 02:14:37;;;;;;;;;;;;;;;23.11;64.92;100940.19;5097139;28;1059;-61
2021/06/19 02:17:02;;;;;;;;;;;;;;;22.87;65.56;100929.44;5096972;28;942;-60
2021/06/19 02:19:27;;;;;;;;;;;;;;;22.72;66.19;100929.31;5096515;28;1470;-60
2021/06/19 02:21:52;;;;;;;;;;;;;;;22.71;66.13;100928.47;5096899;28;1043;-59
2021/06/19 02:24:17;;;;;;;;;;;;;;;22.74;66.00;100930.81;5096540;28;1992;-61
2021/06/19 02:26:42;;;;;;;;;;;;;;;22.54;66.41;100929.53;5096901;28;1055;-60
2021/06/19 02:29:07;;;;;;;;;;;;;;;22.47;66.56;100928.53;5096565;28;929;-61
2021/06/19 02:31:32;;;;;;;;;;;;;;;22.19;67.58;100936.25;5096124;28;1789;-61
2021/06/19 02:33:57;;;;;;;;;;;;;;;22.16;67.55;100944.75;5096324;28;1739;-60
2021/06/19 02:36:22;;;;;;;;;;;;;;;22.13;67.31;100951.38;5096169;28;1822;-61
2021/06/19 02:38:49;;;;;;;;;;;;;;;22.27;67.10;100957.94;5096651;28;1083;-61
2021/06/19 02:41:14;;;;;;;;;;;;;;;22.44;65.93;100965.03;5096474;28;937;-61
2021/06/19 02:43:39;;;;;;;;;;;;;;;22.04;67.39;100960.50;5096111;28;1953;-61
2021/06/19 02:46:04;;;;;;;;;;;;;;;22.06;66.87;100963.06;5095927;28;1164;-60
2021/06/19 02:48:29;;;;;;;;;;;;;;;21.86;67.18;100958.97;5095650;28;990;-61
2021/06/19 02:50:54;;;;;;;;;;;;;;;21.95;66.61;100961.53;5095601;28;1481;-60
2021/06/19 02:53:19;;;;;;;;;;;;;;;21.90;67.04;100965.75;5096278;28;937;-60
2021/06/19 02:55:44;;;;;;;;;;;;;;;22.09;66.28;100968.16;5096131;28;806;-61
2021/06/19 02:58:09;;;;;;;;;;;;;;;21.96;66.91;100967.81;5078153;28;855;-61
2021/06/19 03:00:34;;;;;;;;;;;;;;;21.86;66.84;100970.66;5095787;28;1726;-61
2021/06/19 03:03:01;;;;;;;;;;;;;;;21.75;66.73;100968.31;5096346;28;1956;-60
2021/06/19 03:05:26;;;;;;;;;;;;;;;21.83;66.33;100969.16;5096133;28;834;-60
2021/06/19 03:07:51;;;;;;;;;;;;;;;21.87;66.60;100974.22;5095917;28;1759;-59
2021/06/19 03:10:16;;;;;;;;;;;;;;;21.72;67.20;100982.19;5095363;28;1839;-60
2021/06/19 03:12:41;;;;;;;;;;;;;;;21.89;66.50;100980.34;5095736;28;1386;-60
2021/06/19 03:15:06;;;;;;;;;;;;;;;21.62;66.47;100985.09;5095700;28;857;-61
2021/06/19 03:17:31;;;;;;;;;;;;;;;21.51;67.43;100988.09;5095817;28;1672;-59
2021/06/19 03:19:56;;;;;;;;;;;;;;;21.56;66.85;100991.16;5095569;28;1050;-59
2021/06/19 03:22:21;;;;;;;;;;;;;;;21.50;67.24;100989.13;5095454;28;1913;-60
2021/06/19 03:24:46;;;;;;;;;;;;;;;21.52;66.65;100986.25;5095274;28;861;-59
2021/06/19 03:27:11;;;;;;;;;;;;;;;21.53;66.23;100990.66;5095623;28;876;-59
2021/06/19 03:29:36;;;;;;;;;;;;;;;21.35;66.90;100996.22;5095769;28;988;-60
2021/06/19 03:32:01;;;;;;;;;;;;;;;21.15;67.62;100999.16;5094791;28;1926;-60
2021/06/19 03:34:28;;;;;;;;;;;;;;;21.20;67.03;101000.56;5095225;28;1704;-60
2021/06/19 03:36:58;;;;;;;;;;;;;;;21.28;67.09;100992.47;5095820;28;1751;-60
2021/06/19 03:39:24;;;;;;;;;;;;;;;21.19;67.18;101012.41;5095432;28;865;-60
2021/06/19 03:41:49;;;;;;;;;;;;;;;21.11;66.94;101008.66;5095939;28;884;-60
2021/06/19 03:44:14;;;;;;;;;;;;;;;20.84;67.53;101011.56;5094862;28;1894;-60
2021/06/19 03:46:39;;;;;;;;;;;;;;;20.83;67.67;101020.72;5095586;28;1025;-60
2021/06/19 03:49:04;;;;;;;;;;;;;;;20.85;67.65;101007.84;5094590;28;1697;-60
2021/06/19 03:51:29;;;;;;;;;;;;;;;21.06;67.03;101005.59;5094744;28;1797;-60
2021/06/19 03:53:54;;;;;;;;;;;;;;;20.92;67.02;101008.91;5094933;28;1702;-60
2021/06/19 03:56:19;;;;;;;;;;;;;;;20.84;67.17;101011.56;5099085;28;1630;-60
2021/06/19 03:58:44;;;;;;;;;;;;;;;20.86;67.43;101009.56;5079672;28;1745;-60
2021/06/19 04:01:11;;;;;;;;;;;;;;;21.06;66.86;101027.25;5099057;28;1666;-59
2021/06/19 04:03:36;;;;;;;;;;;;;;;20.93;67.12;101031.44;5099096;28;1967;-59
2021/06/19 04:06:01;;;;;;;;;;;;;;;20.81;66.97;101028.16;5098802;28;1749;-59
2021/06/19 04:08:26;;;;;;;;;;;;;;;20.79;67.92;101022.88;5098671;28;1620;-60
2021/06/19 04:10:51;;;;;;;;;;;;;;;20.61;67.40;101023.97;5097896;28;1551;-60
2021/06/19 04:13:16;;;;;;;;;;;;;;;20.35;68.92;101035.63;5099458;28;995;-60
2021/06/19 04:15:41;;;;;;;;;;;;;;;20.36;68.22;101034.66;5099054;28;879;-60
2021/06/19 04:18:06;;;;;;;;;;;;;;;20.52;68.05;101035.78;5099393;28;1633;-59
2021/06/19 04:20:31;;;;;;;;;;;;;;;20.43;68.51;101043.81;5098541;28;1534;-60
2021/06/19 04:22:57;;;;;;;;;;;;;;;20.62;68.09;101050.03;5098476;28;1902;-59
2021/06/19 04:25:22;;;;;;;;;;;;;;;20.72;67.06;101050.81;5098379;28;1636;-59
2021/06/19 04:27:47;;;;;;;;;;;;;;;20.61;68.02;101067.28;5098433;28;1802;-60
2021/06/19 04:30:12;;;;;;;;;;;;;;;20.39;68.52;101074.09;5098396;28;1616;-60
2021/06/19 04:32:37;;;;;;;;;;;;;;;20.46;68.08;101072.44;5098326;28;1624;-60
2021/06/19 04:35:02;;;;;;;;;;;;;;;20.27;68.94;101078.84;5098674;28;1492;-60
2021/06/19 04:37:27;;;;;;;;;;;;;;;20.34;68.02;101085.34;5098402;28;1604;-60
2021/06/19 04:40:04;;;;;;;;;;;;;;;20.44;67.77;101086.13;5098295;28;1628;-60
2021/06/19 04:42:35;;;;;;;;;;;;;;;20.51;67.74;101085.50;5098002;28;1965;-60
2021/06/19 04:45:02;;;;;;;;;;;;;;;20.26;68.47;101071.75;5098459;28;1556;-60
2021/06/19 04:47:27;;;;;;;;;;;;;;;20.41;68.24;101077.50;5097670;28;1643;-60
2021/06/19 04:49:52;;;;;;;;;;;;;;;20.54;68.30;101088.75;5098008;28;1683;-60
2021/06/19 04:52:17;;;;;;;;;;;;;;;20.53;68.18;101083.50;5097763;28;1541;-60
2021/06/19 04:54:42;;;;;;;;;;;;;;;20.53;67.93;101080.78;5097716;28;2426;-60
2021/06/19 04:57:08;;;;;;;;;;;;;;;20.42;68.11;101084.63;5098272;28;1541;-61
2021/06/19 04:59:33;;;;;;;;;;;;;;;20.15;68.95;101084.69;5098605;28;848;-60
2021/06/19 05:01:58;;;;;;;;;;;;;;;20.13;69.35;101087.53;5098196;28;1696;-60
2021/06/19 05:04:23;;;;;;;;;;;;;;;20.54;67.85;101090.63;5097902;28;1969;-60
2021/06/19 05:06:48;;;;;;;;;;;;;;;20.95;66.27;101092.59;5098014;28;956;-59
2021/06/19 05:09:14;;;;;;;;;;;;;;;21.09;65.31;101097.41;5097822;28;1820;-60
2021/06/19 05:11:39;;;;;;;;;;;;;;;20.86;65.90;101095.41;5097648;28;1720;-60
2021/06/19 05:14:04;;;;;;;;;;;;;;;20.97;66.03;101108.66;5097807;28;1003;-61
2021/06/19 05:16:29;;;;;;;;;;;;;;;20.54;67.18;101117.69;5097899;28;921;-60
2021/06/19 05:18:54;;;;;;;;;;;;;;;20.80;66.81;101115.84;5079760;28;1276;-60
2021/06/19 05:21:19;;;;;;;;;;;;;;;20.79;66.57;101115.00;5097780;28;2241;-60
2021/06/19 05:23:44;;;;;;;;;;;;;;;20.73;67.35;101112.09;5075581;28;2498;-59
2021/06/19 05:26:10;;;;;;;;;;;;;;;20.85;67.21;101113.50;5086645;28;2220;-60
2021/06/19 05:28:35;;;;;;;;;;;;;;;20.88;66.75;101115.91;5091926;28;1617;-62
2021/06/19 05:31:03;;;;;;;;;;;;;;;21.01;65.75;101121.72;5089661;28;1622;-59
2021/06/19 05:33:28;;;;;;;;;;;;;;;20.89;66.27;101120.31;5090613;28;2034;-61
2021/06/19 05:35:53;;;;;;;;;;;;;;;20.60;67.14;101126.03;5094070;28;1694;-61
2021/06/19 05:38:19;;;;;;;;;;;;;;;20.56;67.52;101126.50;5094188;28;1412;-60
2021/06/19 05:40:44;;;;;;;;;;;;;;;20.34;67.92;101125.13;5096126;28;1680;-58
2021/06/19 05:43:09;;;;;;;;;;;;;;;20.44;68.56;101129.44;5094875;28;1987;-60
2021/06/19 05:45:34;;;;;;;;;;;;;;;20.63;67.72;101122.16;5069551;28;1524;-59
2021/06/19 05:47:59;;;;;;;;;;;;;;;20.50;68.09;101125.28;5078815;28;1655;-60
2021/06/19 05:50:24;;;;;;;;;;;;;;;20.55;67.59;101130.22;5085063;28;1683;-60
2021/06/19 05:52:49;;;;;;;;;;;;;;;20.60;67.14;101131.44;5083485;28;1726;-60
2021/06/19 05:55:14;;;;;;;;;;;;;;;20.36;68.03;101132.09;5086656;28;1563;-59
2021/06/19 05:57:40;;;;;;;;;;;;;;;20.19;68.55;101140.19;5085103;28;1652;-58
2021/06/19 06:00:05;;;;;;;;;;;;;;;20.24;68.09;101138.75;5085978;28;1721;-59
2021/06/19 06:02:30;;;;;;;;;;;;;;;20.59;67.84;101132.47;5084315;28;1898;-64
2021/06/19 06:04:55;;;;;;;;;;;;;;;20.97;66.33;101131.19;5083579;28;1721;-59
2021/06/19 06:07:20;;;;;;;;;;;;;;;21.01;66.38;101129.88;5080882;28;1287;-60
2021/06/19 06:09:45;;;;;;;;;;;;;;;20.93;66.81;101137.97;5086675;28;1684;-60
2021/06/19 06:12:10;;;;;;;;;;;;;;;20.89;66.51;101138.44;5096028;28;1749;-61
2021/06/19 06:14:35;;;;;;;;;;;;;;;20.51;67.24;101139.66;5097078;28;1797;-60
2021/06/19 06:17:00;;;;;;;;;;;;;;;20.62;67.29;101131.28;5077368;28;1863;-60
2021/06/19 06:19:25;;;;;;;;;;;;;;;20.93;66.20;101135.25;5076524;28;1547;-59
2021/06/19 06:21:51;;;;;;;;;;;;;;;21.02;65.75;101142.41;5061744;28;1601;-61
2021/06/19 06:24:16;;;;;;;;;;;;;;;20.89;66.01;101141.13;5082596;28;1973;-60
2021/06/19 06:26:41;;;;;;;;;;;;;;;20.61;67.35;101156.66;5091257;28;1518;-60
2021/06/19 06:29:06;;;;;;;;;;;;;;;20.47;67.60;101157.22;5095982;28;2010;-59
2021/06/19 06:31:31;;;;;;;;;;;;;;;20.61;66.71;101156.66;5095617;28;1557;-59
2021/06/19 06:33:56;;;;;;;;;;;;;;;20.61;67.42;101151.25;5080818;28;1508;-60
2021/06/19 06:36:22;;;;;;;;;;;;;;;20.61;66.68;101162.06;5086053;28;2063;-60
2021/06/19 06:38:47;;;;;;;;;;;;;;;20.51;67.17;101167.59;5076493;28;1519;-59
2021/06/19 06:41:12;;;;;;;;;;;;;;;20.64;67.15;101170.75;5092415;28;1544;-60
2021/06/19 06:43:37;;;;;;;;;;;;;;;20.68;66.80;101179.41;5095425;28;1953;-59
2021/06/19 06:46:02;;;;;;;;;;;;;;;20.83;66.05;101176.97;5095073;28;2044;-60
2021/06/19 06:48:29;;;;;;;;;;;;;;;20.77;65.78;101182.03;5095029;28;1904;-60
2021/06/19 06:50:54;;;;;;;;;;;;;;;20.42;67.17;101180.19;5095352;28;1952;-58
2021/06/19 06:53:19;;;;;;;;;;;;;;;20.47;66.61;101177.03;5087586;28;1820;-60
2021/06/19 06:55:44;;;;;;;;;;;;;;;20.61;67.05;101172.91;5077876;28;1651;-59
2021/06/19 06:58:10;;;;;;;;;;;;;;;20.74;69.46;101184.22;5092325;28;1577;-60
2021/06/19 07:00:35;;;;;;;;;;;;;;;20.53;68.47;101179.13;5095134;28;1672;-60
2021/06/19 07:03:00;;;;;;;;;;;;;;;20.34;69.28;101181.94;5093688;28;1981;-61
2021/06/19 07:05:25;;;;;;;;;;;;;;;20.45;68.29;101177.19;5095351;28;1940;-59
2021/06/19 07:07:50;;;;;;;;;;;;;;;20.44;67.74;101185.44;5100034;28;1947;-60
2021/06/19 07:10:15;;;;;;;;;;;;;;;20.45;68.01;101185.31;5108148;28;1560;-59
2021/06/19 07:12:44;;;;;;;;;;;;;;;20.54;66.93;101182.69;5095481;28;1667;-59
2021/06/19 07:15:10;;;;;;;;;;;;;;;20.62;67.05;101180.03;5095778;28;783;-60
2021/06/19 07:17:35;;;;;;;;;;;;;;;21.09;66.02;101184.13;5095908;28;862;-58
2021/06/19 07:20:02;;;;;;;;;;;;;;;21.04;65.79;101182.91;5096180;28;881;-59
2021/06/19 07:22:27;;;;;;;;;;;;;;;20.98;66.02;101184.38;5095558;28;1909;-59
2021/06/19 07:24:52;;;;;;;;;;;;;;;21.22;65.28;101172.88;5095614;28;1510;-58
2021/06/19 07:27:17;;;;;;;;;;;;;;;21.18;65.60;101174.16;5095641;28;1738;-59
2021/06/19 07:29:42;;;;;;;;;;;;;;;21.10;65.82;101180.41;5095663;28;1663;-59
2021/06/19 07:32:07;;;;;;;;;;;;;;;21.21;65.46;101173.88;5095668;28;1008;-60
2021/06/19 07:34:32;;;;;;;;;;;;;;;21.26;64.88;101182.41;5095012;28;1719;-59
2021/06/19 07:36:58;;;;;;;;;;;;;;;20.98;64.86;101187.09;5095043;28;844;-59
2021/06/19 07:39:23;;;;;;;;;;;;;;;20.99;65.65;101180.66;5095742;28;849;-59
2021/06/19 07:41:48;;;;;;;;;;;;;;;21.04;64.79;101186.47;5095463;28;1012;-59
2021/06/19 07:44:14;;;;;;;;;;;;;;;21.11;64.72;101187.53;5076952;28;1898;-59
2021/06/19 07:46:39;;;;;;;;;;;;;;;21.12;64.80;101196.50;5095121;28;1748;-59
2021/06/19 07:49:04;;;;;;;;;;;;;;;20.92;64.40;101197.72;5095528;28;1072;-59
2021/06/19 07:51:30;;;;;;;;;;;;;;;20.39;64.97;101207.59;5095550;28;1190;-59
2021/06/19 07:53:55;;;;;;;;;;;;;;;20.30;65.83;101210.31;5095340;28;841;-59
2021/06/19 07:56:20;;;;;;;;;;;;;;;19.95;66.23;101209.28;5094805;28;1968;-58
2021/06/19 07:58:45;;;;;;;;;;;;;;;19.86;65.42;101215.59;5095022;28;827;-59
2021/06/19 08:01:10;;;;;;;;;;;;;;;19.74;66.09;101214.09;5095282;28;1024;-59
2021/06/19 08:03:35;;;;;;;;;;;;;;;19.82;65.96;101218.75;5095437;28;1951;-58
2021/06/19 08:06:00;;;;;;;;;;;;;;;19.85;66.02;101218.47;5094744;28;861;-60
2021/06/19 08:08:25;;;;;;;;;;;;;;;20.03;65.32;101216.66;5094850;28;1726;-60
2021/06/19 08:10:53;;;;;;;;;;;;;;;20.37;64.04;101222.28;5094955;28;1367;-60
2021/06/19 08:13:18;;;;;;;;;;;;;;;20.16;64.39;101222.53;5095025;28;861;-59
2021/06/19 08:15:43;;;;;;;;;;;;;;;20.10;65.35;101233.97;5095158;28;901;-60
2021/06/19 08:18:08;;;;;;;;;;;;;;;20.09;64.79;101233.09;5094819;28;814;-60
2021/06/19 08:20:34;;;;;;;;;;;;;;;19.81;65.26;101227.88;5095314;28;825;-59
2021/06/19 08:23:00;;;;;;;;;;;;;;;19.96;64.71;101238.03;5094766;28;1967;-59
2021/06/19 08:25:25;;;;;;;;;;;;;;;19.93;64.99;101243.75;5095484;28;857;-60
2021/06/19 08:27:50;;;;;;;;;;;;;;;19.76;65.01;101255.34;5094477;28;1923;-59
2021/06/19 08:30:15;;;;;;;;;;;;;;;19.66;64.76;101258.13;5094377;28;1756;-59
2021/06/19 08:32:40;;;;;;;;;;;;;;;20.16;64.54;101259.56;5093147;28;1740;-59
2021/06/19 08:35:05;;;;;;;;;;;;;;;20.25;63.46;101256.78;5094749;28;973;-57
2021/06/19 08:37:30;;;;;;;;;;;;;;;20.14;62.97;101267.84;5095265;28;1520;-59
2021/06/19 08:39:57;;;;;;;;;;;;;;;20.19;63.24;101270.09;5094098;28;1521;-60
2021/06/19 08:42:22;;;;;;;;;;;;;;;20.61;62.31;101281.22;5098177;28;1953;-59
2021/06/19 08:44:47;;;;;;;;;;;;;;;20.59;62.56;101272.44;5098261;28;1620;-61
2021/06/19 08:47:12;;;;;;;;;;;;;;;20.79;60.97;101273.97;5097626;28;1853;-59
2021/06/19 08:49:37;;;;;;;;;;;;;;;20.74;61.68;101274.44;5098106;28;1647;-61
2021/06/19 08:52:03;;;;;;;;;;;;;;;20.89;61.86;101260.34;5098319;28;1632;-60
2021/06/19 08:54:38;;;;;;;;;;;;;;;20.94;61.30;101266.16;5097918;28;1000;-60
2021/06/19 08:57:03;;;;;;;;;;;;;;;20.96;60.98;101272.28;5097381;28;1610;-60
2021/06/19 08:59:28;;;;;;;;;;;;;;;20.99;61.31;101275.50;5097937;28;1016;-60
2021/06/19 09:01:53;;;;;;;;;;;;;;;20.89;61.67;101272.03;5097270;28;1762;-60
2021/06/19 09:04:18;;;;;;;;;;;;;;;20.93;61.37;101278.84;5097757;28;1894;-60
2021/06/19 09:06:43;;;;;;;;;;;;;;;21.09;60.95;101286.25;5098044;28;1802;-60
2021/06/19 09:09:08;;;;;;;;;;;;;;;21.04;60.59;101292.16;5097701;28;897;-60
2021/06/19 09:11:34;;;;;;;;;;;;;;;20.92;60.55;101279.84;5096355;28;1634;-60
2021/06/19 09:13:59;;;;;;;;;;;;;;;20.98;60.45;101279.22;5079119;28;1823;-61
2021/06/19 09:16:24;;;;;;;;;;;;;;;21.10;59.81;101277.13;5097293;28;1546;-60
2021/06/19 09:18:49;;;;;;;;;;;;;;;21.14;59.85;101286.63;5097183;28;1939;-59
2021/06/19 09:21:15;;;;;;;;;;;;;;;21.06;59.87;101283.84;5097460;28;1600;-59
2021/06/19 09:23:40;;;;;;;;;;;;;;;20.93;61.26;101284.28;5096659;28;1971;-60
2021/06/19 09:26:05;;;;;;;;;;;;;;;20.98;59.99;101281.06;5096702;28;1612;-60
2021/06/19 09:28:30;;;;;;;;;;;;;;;21.08;59.78;101284.56;5096918;28;1710;-60
2021/06/19 09:30:55;;;;;;;;;;;;;;;20.88;60.44;101278.47;5097675;28;1202;-59
2021/06/19 09:33:20;;;;;;;;;;;;;;;20.89;59.64;101274.75;5079634;28;1056;-60
2021/06/19 09:35:45;;;;;;;;;;;;;;;20.82;60.78;101279.06;5097448;28;1687;-60
2021/06/19 09:38:10;;;;;;;;;;;;;;;20.85;60.45;101286.91;5079426;28;1917;-60
2021/06/19 09:40:35;;;;;;;;;;;;;;;20.85;60.55;101286.03;5097294;28;846;-59
2021/06/19 09:43:00;;;;;;;;;;;;;;;21.02;59.89;101283.31;5096881;28;1945;-58
2021/06/19 09:45:25;;;;;;;;;;;;;;;21.17;59.71;101290.88;5097151;28;1695;-57
2021/06/19 09:47:50;;;;;;;;;;;;;;;21.25;59.55;101293.69;5097338;28;1007;-58
2021/06/19 09:50:16;;;;;;;;;;;;;;;21.30;59.64;101294.09;5097103;28;944;-57
2021/06/19 09:52:41;;;;;;;;;;;;;;;21.36;59.17;101301.56;5095978;28;1055;-58
2021/06/19 09:55:06;;;;;;;;;;;;;;;21.38;59.82;101307.69;5097259;28;1473;-58
2021/06/19 09:57:31;;;;;;;;;;;;;;;21.39;59.08;101310.25;5097130;28;1773;-57
2021/06/19 09:59:56;;;;;;;;;;;;;;;21.41;59.87;101307.38;5096968;28;1016;-58
2021/06/19 10:02:21;;;;;;;;;;;;;;;21.43;59.91;101302.66;5097079;28;1961;-58
2021/06/19 10:04:46;;;;;;;;;;;;;;;21.46;59.61;101316.75;5096937;28;790;-58
2021/06/19 10:07:11;;;;;;;;;;;;;;;21.47;59.91;101315.75;5097214;28;885;-57
2021/06/19 10:09:36;;;;;;;;;;;;;;;21.49;59.24;101315.59;5097129;28;988;-57
2021/06/19 10:12:01;;;;;;;;;;;;;;;21.50;59.50;101317.25;5078455;28;1217;-57
2021/06/19 10:14:27;;;;;;;;;;;;;;;21.51;59.65;101318.97;5097028;28;781;-58
2021/06/19 10:16:52;;;;;;;;;;;;;;;21.52;59.68;101312.53;5096195;28;1932;-58
2021/06/19 10:19:18;;;;;;;;;;;;;;;21.53;59.56;101302.53;5096778;28;1159;-57
2021/06/19 10:21:44;;;;;;;;;;;;;;;21.54;59.36;101312.38;5096941;28;879;-58
2021/06/19 10:24:09;;;;;;;;;;;;;;;21.55;59.67;101311.34;5096533;28;1910;-58
2021/06/19 10:26:34;;;;;;;;;;;;;;;21.55;60.17;101297.78;5096611;28;949;-58
2021/06/19 10:28:59;;;;;;;;;;;;;;;21.57;59.34;101301.22;5096189;28;1075;-58
2021/06/19 10:31:24;;;;;;;;;;;;;;;21.59;59.73;101291.06;5096123;28;873;-58
2021/06/19 10:33:49;;;;;;;;;;;;;;;21.59;59.79;101288.34;5096536;28;980;-58
2021/06/19 10:36:17;;;;;;;;;;;;;;;21.59;59.31;101300.03;5096639;28;861;-58
2021/06/19 10:38:42;;;;;;;;;;;;;;;21.60;59.91;101296.31;5096704;28;992;-59
2021/06/19 10:41:07;;;;;;;;;;;;;;;21.63;59.94;101293.28;5096131;28;834;-58
2021/06/19 10:43:32;;;;;;;;;;;;;;;21.63;59.33;101290.56;5095750;28;1945;-58
2021/06/19 10:45:57;;;;;;;;;;;;;;;21.62;59.86;101274.47;5095530;28;1609;-58
2021/06/19 10:48:22;;;;;;;;;;;;;;;21.63;59.60;101274.31;5096210;28;1665;-58
2021/06/19 10:50:48;;;;;;;;;;;;;;;21.67;59.85;101270.25;5095962;28;1008;-58
2021/06/19 10:53:14;;;;;;;;;;;;;;;21.66;59.50;101268.56;5096042;28;1063;-58
2021/06/19 10:55:39;;;;;;;;;;;;;;;21.67;59.50;101269.41;5096674;28;879;-58
2021/06/19 10:58:05;;;;;;;;;;;;;;;21.69;59.98;101267.34;5096350;28;868;-58
2021/06/19 11:00:30;;;;;;;;;;;;;;;21.69;59.52;101273.63;5096333;28;754;-58
2021/06/19 11:02:55;;;;;;;;;;;;;;;21.69;59.45;101262.78;5095702;28;1949;-58
2021/06/19 11:05:20;;;;;;;;;;;;;;;21.71;59.68;101277.03;5095973;28;1740;-59
2021/06/19 11:07:45;;;;;;;;;;;;;;;21.72;59.59;101284.16;5096083;28;865;-59
2021/06/19 11:10:10;;;;;;;;;;;;;;;21.74;59.39;101284.00;5095457;28;779;-57
2021/06/19 11:12:35;;;;;;;;;;;;;;;21.74;59.34;101284.88;5095748;28;1211;-58
2021/06/19 11:15:04;;;;;;;;;;;;;;;21.74;59.82;101294.88;5095645;28;1825;-58
2021/06/19 11:17:29;;;;;;;;;;;;;;;21.76;59.26;101282.00;5095439;28;782;-57
2021/06/19 11:19:59;;;;;;;;;;;;;;;21.75;59.11;101277.56;5095835;28;1581;-57
2021/06/19 11:22:24;;;;;;;;;;;;;;;21.76;59.99;101273.84;5095899;28;1963;-58
2021/06/19 11:24:49;;;;;;;;;;;;;;;21.78;59.52;101279.97;5095228;28;1813;-58
2021/06/19 11:27:14;;;;;;;;;;;;;;;21.77;59.82;101276.41;5095563;28;1848;-58
2021/06/19 11:29:41;;;;;;;;;;;;;;;21.78;59.24;101267.25;5095456;28;1557;-57
2021/06/19 11:32:06;;;;;;;;;;;;;;;21.79;59.34;101274.38;5095673;28;825;-57
2021/06/19 11:34:31;;;;;;;;;;;;;;;21.80;59.24;101265.25;5095307;28;1016;-57
2021/06/19 11:36:56;;;;;;;;;;;;;;;21.81;59.40;101257.94;5095203;28;921;-57
2021/06/19 11:39:21;;;;;;;;;;;;;;;21.79;59.35;101249.97;5095554;28;1598;-58
2021/06/19 11:41:46;;;;;;;;;;;;;;;21.81;59.40;101247.09;5095146;28;809;-54
2021/06/19 11:44:12;;;;;;;;;;;;;;;21.82;59.38;101252.38;5095473;28;1957;-56
2021/06/19 11:46:37;;;;;;;;;;;;;;;21.85;59.76;101258.47;5095298;28;914;-57
2021/06/19 11:49:07;;;;;;;;;;;;;;;21.86;59.20;101246.59;5077172;28;1233;-58
2021/06/19 11:51:32;;;;;;;;;;;;;;;21.85;59.52;101262.03;5094960;28;809;-58
2021/06/19 11:53:57;;;;;;;;;;;;;;;21.87;59.91;101260.00;5095165;28;1710;-58
2021/06/19 11:56:25;;;;;;;;;;;;;;;21.88;59.43;101258.13;5095208;28;1780;-57
2021/06/19 11:58:50;;;;;;;;;;;;;;;21.87;59.52;101256.44;5095445;28;798;-57
2021/06/19 12:01:15;;;;;;;;;;;;;;;21.89;59.70;101268.81;5095202;28;818;-58
2021/06/19 12:03:40;;;;;;;;;;;;;;;21.89;59.93;101268.81;5095019;28;1922;-59
2021/06/19 12:06:05;;;;;;;;;;;;;;;21.91;59.48;101274.09;5095136;28;1763;-58
2021/06/19 12:08:30;;;;;;;;;;;;;;;21.90;59.60;101275.94;5095422;28;1011;-58
2021/06/19 12:10:55;;;;;;;;;;;;;;;21.90;59.26;101272.38;5094855;28;1020;-58
2021/06/19 12:13:21;;;;;;;;;;;;;;;21.91;59.83;101261.38;5094774;28;1340;-57
2021/06/19 12:15:46;;;;;;;;;;;;;;;21.93;59.87;101272.06;5096761;28;1079;-57
2021/06/19 12:18:11;;;;;;;;;;;;;;;21.93;60.01;101267.50;5099083;28;1608;-58
2021/06/19 12:20:36;;;;;;;;;;;;;;;21.93;59.53;101266.63;5098864;28;940;-58
2021/06/19 12:23:01;;;;;;;;;;;;;;;21.94;59.33;101268.34;5098806;28;1909;-59
2021/06/19 12:25:26;;;;;;;;;;;;;;;21.94;60.06;101265.63;5099006;28;1868;-57
2021/06/19 12:27:51;;;;;;;;;;;;;;;21.95;59.70;101272.75;5099108;28;1483;-58
2021/06/19 12:30:16;;;;;;;;;;;;;;;21.96;59.50;101263.59;5099063;28;1011;-58
2021/06/19 12:32:41;;;;;;;;;;;;;;;21.96;59.72;101269.88;5099168;28;1011;-57
2021/06/19 12:35:07;;;;;;;;;;;;;;;21.97;59.63;101265.31;5098843;28;844;-58
2021/06/19 12:37:32;;;;;;;;;;;;;;;21.97;59.91;101265.31;5099021;28;945;-58
2021/06/19 12:39:57;;;;;;;;;;;;;;;21.99;59.74;101266.00;5098786;28;840;-58